Time;durP1;ratioP1;P1;durP2;ratioP2;P2;SDS_P1;SDS_P2;PMS_P1;PMS_P2;Temp;Humidity;BMP_temperature;BMP_pressure;BME280_temperature;BME280_humidity;BME280_pressure;Samples;Min_cycle;Max_cycle;Signal;HPM_P1;HPM_P2
2023/01/22 00:02:34;;;;;;;19.38;13.00;;;;;;;0.53;85.30;101839.13;5080741;28;20043;-66
2023/01/22 00:05:38;;;;;;;20.30;14.98;;;;;;;0.59;85.22;101835.78;5093245;28;20097;-66
2023/01/22 00:08:42;;;;;;;19.35;14.43;;;;;;;0.63;85.35;101832.38;5085333;28;20047;-66
2023/01/22 00:11:45;;;;;;;20.17;14.68;;;;;;;0.63;85.34;101828.06;5093039;28;20059;-66
2023/01/22 00:14:48;;;;;;;21.63;14.88;;;;;;;0.62;85.68;101823.78;5093333;28;20050;-66
2023/01/22 00:17:52;;;;;;;17.67;13.82;;;;;;;0.63;85.46;101822.06;5086345;28;20038;-66
2023/01/22 00:20:55;;;;;;;19.85;14.50;;;;;;;0.61;85.42;101816.94;5093086;28;20104;-66
2023/01/22 00:23:59;;;;;;;17.90;13.80;;;;;;;0.58;85.54;101816.91;5087040;28;20428;-66
2023/01/22 00:27:02;;;;;;;;;;;;;;;0.59;85.71;101810.88;5087285;28;20512;-66
2023/01/22 00:30:06;;;;;;;18.38;13.10;;;;;;;0.62;85.57;101804.91;5080627;28;19970;-66
2023/01/22 00:33:09;;;;;;;21.58;14.10;;;;;;;0.58;85.50;101806.59;5092818;28;20043;-66
2023/01/22 00:36:18;;;;;;;19.20;14.63;;;;;;;0.57;85.60;101796.28;5092780;28;20097;-66
2023/01/22 00:39:21;;;;;;;19.50;14.90;;;;;;;0.47;86.24;101797.91;5092419;28;20112;-66
2023/01/22 00:42:25;;;;;;;20.00;14.07;;;;;;;0.51;86.23;101797.09;5079985;28;20564;-66
2023/01/22 00:45:29;;;;;;;19.17;13.30;;;;;;;0.53;86.36;101800.53;5082469;28;20046;-66
2023/01/22 00:48:34;;;;;;;19.63;13.60;;;;;;;0.46;86.16;101797.03;5112812;28;20047;-66
2023/01/22 00:51:38;;;;;;;18.23;13.38;;;;;;;0.49;86.39;101801.34;5112780;28;20416;-66
2023/01/22 00:54:41;;;;;;;21.25;13.70;;;;;;;0.52;86.30;101798.81;5112561;28;20045;-66
2023/01/22 00:57:45;;;;;;;20.20;14.00;;;;;;;0.57;86.41;101809.13;5112356;28;20435;-66
2023/01/22 01:00:49;;;;;;;22.23;14.23;;;;;;;0.59;86.21;101803.16;5099323;28;20068;-66
2023/01/22 01:03:52;;;;;;;20.50;14.70;;;;;;;0.50;86.54;101802.22;5112522;28;20156;-66
2023/01/22 01:06:56;;;;;;;20.38;14.55;;;;;;;0.51;86.67;101806.50;5112243;28;20046;-67
2023/01/22 01:10:00;;;;;;;20.42;14.18;;;;;;;0.53;86.59;101805.69;5099976;28;20050;-66
2023/01/22 01:13:05;;;;;;;21.85;15.82;;;;;;;0.53;86.30;101805.69;5112433;28;20038;-66
2023/01/22 01:16:23;;;;;;;20.55;13.90;;;;;;;0.56;86.73;101805.72;5112281;28;20172;-67
2023/01/22 01:19:27;;;;;;;20.58;14.77;;;;;;;0.59;86.57;101803.16;5099385;28;20112;-66
2023/01/22 01:22:31;;;;;;;21.75;15.32;;;;;;;0.59;86.78;101804.88;5112367;28;20101;-66
2023/01/22 01:25:34;;;;;;;18.58;14.18;;;;;;;0.65;86.95;101795.50;5112270;28;20047;-66
2023/01/22 01:28:39;;;;;;;24.23;15.00;;;;;;;0.62;86.57;101799.75;5112470;28;20081;-66
2023/01/22 01:31:43;;;;;;;23.15;15.27;;;;;;;0.62;87.15;101797.19;5112234;28;20043;-66
2023/01/22 01:34:48;;;;;;;;;;;;;;;0.57;87.25;101804.84;5112436;28;20085;-66
2023/01/22 01:37:52;;;;;;;25.75;16.67;;;;;;;0.62;87.31;101792.91;5114607;28;19972;-66
2023/01/22 01:40:57;;;;;;;22.40;14.95;;;;;;;0.65;86.81;101787.78;5103474;28;20086;-67
2023/01/22 01:44:10;;;;;;;41.50;25.42;;;;;;;0.55;87.81;101783.41;5116505;28;20070;-66
2023/01/22 01:47:31;;;;;;;28.58;20.27;;;;;;;0.61;87.35;101782.59;5116157;28;20054;-66
2023/01/22 01:50:36;;;;;;;30.80;18.88;;;;;;;0.62;87.87;101789.47;5103596;28;20404;-66
2023/01/22 01:53:41;;;;;;;26.92;19.25;;;;;;;0.51;88.05;101785.91;5116296;28;20045;-66
2023/01/22 01:56:53;;;;;;;27.10;18.02;;;;;;;0.60;87.76;101792.00;5103645;28;20665;-66
2023/01/22 01:59:59;;;;;;;50.67;31.55;;;;;;;0.62;87.49;101785.19;5116120;28;20046;-66
2023/01/22 02:03:02;;;;;;;39.95;25.58;;;;;;;0.67;87.54;101783.53;5116162;28;20572;-66
2023/01/22 02:06:20;;;;;;;30.50;19.67;;;;;;;0.67;87.62;101778.38;5116345;28;20054;-66
2023/01/22 02:09:23;;;;;;;24.02;17.90;;;;;;;0.72;87.14;101786.13;5103511;28;20122;-66
2023/01/22 02:12:29;;;;;;;27.50;19.10;;;;;;;0.64;87.33;101783.50;5116006;28;20500;-66
2023/01/22 02:15:34;;;;;;;21.75;14.30;;;;;;;0.69;87.39;101789.53;5103377;28;20042;-66
2023/01/22 02:18:37;;;;;;;29.85;19.45;;;;;;;0.73;87.03;101792.13;5115794;28;20108;-66
2023/01/22 02:21:42;;;;;;;21.40;14.70;;;;;;;0.74;87.16;101781.84;5115712;28;20047;-66
2023/01/22 02:24:45;;;;;;;38.95;25.33;;;;;;;0.57;87.84;101786.84;5103036;28;20114;-66
2023/01/22 02:27:49;;;;;;;23.90;15.63;;;;;;;0.71;87.29;101786.13;5115964;28;20042;-66
2023/01/22 02:35:14;;;;;;;22.17;16.20;;;;;;;0.80;87.33;101783.59;5102977;28;20050;-66
2023/01/22 02:38:19;;;;;;;33.53;23.73;;;;;;;0.69;87.65;101771.50;5102874;28;20046;-66
2023/01/22 02:41:23;;;;;;;25.40;18.90;;;;;;;0.78;87.34;101777.59;5102768;28;20424;-66
2023/01/22 02:44:27;;;;;;;20.92;15.98;;;;;;;0.83;87.18;101781.03;5115451;28;20099;-66
2023/01/22 02:47:30;;;;;;;23.25;17.83;;;;;;;0.79;87.16;101776.72;5102635;28;20042;-66
2023/01/22 02:50:33;;;;;;;15.13;12.15;;;;;;;0.82;87.28;101784.47;5102644;28;20396;-66
2023/01/22 02:53:37;;;;;;;16.85;12.55;;;;;;;0.80;87.62;101769.03;5115054;28;20042;-66
2023/01/22 02:56:41;;;;;;;16.85;12.95;;;;;;;0.81;87.41;101777.63;5115174;28;20045;-66
2023/01/22 02:59:45;;;;;;;16.70;12.27;;;;;;;0.79;87.65;101775.00;5102399;28;20050;-66
2023/01/22 03:02:48;;;;;;;19.65;14.48;;;;;;;0.81;87.39;101770.75;5102286;28;20069;-66
2023/01/22 03:05:52;;;;;;;19.20;14.05;;;;;;;0.76;87.63;101761.25;5114844;28;20074;-66
2023/01/22 03:08:58;;;;;;;16.73;13.70;;;;;;;0.77;87.63;101757.84;5114964;28;20160;-66
2023/01/22 03:12:01;;;;;;;15.70;12.48;;;;;;;0.76;87.63;101754.38;5102129;28;20042;-66
2023/01/22 03:21:55;;;;;;;15.48;10.98;;;;;;;0.81;87.61;101752.72;5114542;28;20092;-66
2023/01/22 03:25:00;;;;;;;16.30;11.95;;;;;;;0.81;87.24;101755.31;5114767;28;20071;-66
2023/01/22 03:28:17;;;;;;;17.02;12.60;;;;;;;0.83;87.64;101747.56;5101727;28;20038;-66
2023/01/22 03:31:26;;;;;;;22.65;13.50;;;;;;;0.46;89.54;101755.00;5102090;28;20054;-66
2023/01/22 03:34:29;;;;;;;15.65;11.73;;;;;;;0.60;89.21;101761.13;5101697;28;20074;-66
2023/01/22 03:37:34;;;;;;;17.02;12.68;;;;;;;0.71;88.42;101757.81;5101780;28;20408;-66
2023/01/22 03:40:37;;;;;;;15.20;11.40;;;;;;;0.80;88.20;101766.47;5101389;28;20062;-66
2023/01/22 03:43:40;;;;;;;15.43;12.25;;;;;;;0.83;87.78;101760.44;5101608;28;20491;-66
2023/01/22 03:46:46;;;;;;;15.85;11.65;;;;;;;0.84;87.46;101764.75;5101206;28;20041;-66
2023/01/22 03:49:50;;;;;;;14.35;10.73;;;;;;;0.86;87.87;101760.47;5101207;28;20046;-66
2023/01/22 03:52:56;;;;;;;15.07;11.52;;;;;;;0.81;87.42;101760.44;5101489;28;20082;-66
2023/01/22 03:56:01;;;;;;;16.92;11.80;;;;;;;0.81;87.61;101769.88;5113857;28;20106;-66
2023/01/22 03:59:08;;;;;;;14.38;10.15;;;;;;;0.89;87.63;101770.78;5101233;28;20057;-66
2023/01/22 04:02:12;;;;;;;13.93;10.65;;;;;;;0.88;87.40;101771.66;5100404;28;20576;-66
2023/01/22 04:05:27;;;;;;;14.43;11.57;;;;;;;0.89;87.56;101770.78;5101027;28;20046;-66
2023/01/22 04:08:33;;;;;;;13.48;10.90;;;;;;;0.86;87.78;101769.09;5100957;28;20043;-66
2023/01/22 04:11:36;;;;;;;14.23;11.00;;;;;;;0.89;87.28;101773.38;5100787;28;20047;-66
2023/01/22 04:14:43;;;;;;;13.25;10.85;;;;;;;0.88;87.28;101771.66;5100882;28;20458;-66
2023/01/22 04:17:46;;;;;;;15.57;12.15;;;;;;;0.86;87.58;101771.66;5101000;28;20045;-66
2023/01/22 04:21:08;;;;;;;16.17;10.43;;;;;;;0.88;87.62;101769.94;5113405;28;20050;-66
2023/01/22 04:24:19;;;;;;;14.15;10.45;;;;;;;0.89;87.47;101770.78;5089843;28;20127;-66
2023/01/22 04:27:22;;;;;;;13.30;9.50;;;;;;;0.91;87.60;101771.69;5100793;28;20478;-66
2023/01/22 04:30:27;;;;;;;12.88;10.50;;;;;;;0.91;87.42;101769.97;5089124;28;20108;-66
2023/01/22 04:33:41;;;;;;;12.20;9.27;;;;;;;0.93;86.97;101763.13;5100365;28;20476;-66
2023/01/22 04:36:48;;;;;;;11.90;9.55;;;;;;;0.92;87.06;101763.09;5100819;28;20420;-66
2023/01/22 04:39:52;;;;;;;12.10;9.20;;;;;;;0.90;87.18;101752.78;5100228;28;20050;-66
2023/01/22 04:43:01;;;;;;;11.80;9.50;;;;;;;0.90;87.25;101763.09;5088912;28;20522;-66
2023/01/22 04:46:05;;;;;;;12.55;9.40;;;;;;;0.97;87.60;101755.41;5095419;28;20090;-66
2023/01/22 04:49:10;;;;;;;10.88;8.65;;;;;;;0.98;86.93;101762.28;5100193;28;20051;-66
2023/01/22 04:52:15;;;;;;;11.27;9.35;;;;;;;0.98;87.23;101765.72;5099990;28;20038;-66
2023/01/22 04:55:19;;;;;;;12.77;9.82;;;;;;;0.94;87.37;101771.72;5100210;28;20473;-66
2023/01/22 04:58:30;;;;;;;13.25;10.50;;;;;;;0.90;87.45;101769.97;5100092;28;20111;-66
2023/01/22 05:01:35;;;;;;;12.80;10.20;;;;;;;0.92;87.74;101768.25;5100100;28;20053;-66
2023/01/22 05:04:40;;;;;;;11.60;9.40;;;;;;;0.90;87.76;101775.97;5099959;28;20110;-66
2023/01/22 05:07:44;;;;;;;12.23;9.73;;;;;;;0.91;87.84;101766.53;5099691;28;20100;-66
2023/01/22 05:10:47;;;;;;;10.25;8.32;;;;;;;0.94;87.23;101766.56;5088599;28;20092;-66
2023/01/22 05:13:57;;;;;;;10.07;8.15;;;;;;;0.91;87.55;101766.53;5089091;28;20093;-66
2023/01/22 05:17:00;;;;;;;10.95;8.60;;;;;;;0.92;87.71;101773.41;5099838;28;20104;-66
2023/01/22 05:20:04;;;;;;;12.38;9.95;;;;;;;0.90;87.48;101778.56;5112629;28;20062;-66
2023/01/22 05:23:14;;;;;;;12.35;10.25;;;;;;;0.95;87.66;101773.41;5112165;28;20135;-66
2023/01/22 05:26:20;;;;;;;11.73;9.68;;;;;;;0.93;87.92;101775.13;5112641;28;20062;-66
2023/01/22 05:29:34;;;;;;;12.00;9.68;;;;;;;0.89;87.90;101778.53;5099909;28;20085;-66
2023/01/22 05:32:55;;;;;;;12.77;9.77;;;;;;;0.91;88.27;101759.66;5112283;28;20556;-66
2023/01/22 05:36:01;;;;;;;11.77;9.70;;;;;;;0.91;88.21;101766.53;5099737;28;20511;-66
2023/01/22 05:39:05;;;;;;;12.35;9.88;;;;;;;0.88;88.25;101762.22;5099556;28;20059;-66
2023/01/22 05:42:13;;;;;;;11.15;9.13;;;;;;;0.90;87.95;101763.09;5099121;28;20041;-66
2023/01/22 05:45:20;;;;;;;10.88;8.93;;;;;;;0.90;88.12;101767.38;5099649;28;20070;-66
2023/01/22 05:48:44;;;;;;;9.65;8.07;;;;;;;0.89;88.00;101770.78;5099680;28;20046;-66
2023/01/22 05:51:51;;;;;;;9.52;7.57;;;;;;;0.88;88.08;101774.22;5112363;28;20046;-66
2023/01/22 05:55:02;;;;;;;9.85;7.90;;;;;;;0.85;88.36;101787.09;5088108;28;20078;-66
2023/01/22 05:58:11;;;;;;;10.25;8.02;;;;;;;0.91;88.11;101776.84;5099243;28;20063;-66
2023/01/22 06:01:16;;;;;;;10.80;8.75;;;;;;;0.89;88.09;101778.53;5099095;28;20047;-66
2023/01/22 06:04:24;;;;;;;9.23;6.95;;;;;;;0.88;88.08;101776.81;5098394;28;20119;-67
2023/01/22 06:07:30;;;;;;;10.23;8.10;;;;;;;0.94;88.17;101782.00;5099173;28;20054;-66
2023/01/22 06:10:33;;;;;;;14.88;10.15;;;;;;;0.97;87.72;101782.03;5099711;28;20130;-66
2023/01/22 06:13:38;;;;;;;15.80;12.30;;;;;;;0.94;87.75;101776.84;5099589;28;20055;-67
2023/01/22 06:16:52;;;;;;;16.27;11.77;;;;;;;0.97;87.79;101782.03;5099401;28;20188;-67
2023/01/22 06:20:09;;;;;;;12.07;9.10;;;;;;;0.99;87.76;101782.03;5098934;28;20126;-66
2023/01/22 06:23:13;;;;;;;14.00;10.68;;;;;;;0.97;87.65;101771.72;5099563;28;20197;-65
2023/01/22 06:26:16;;;;;;;11.52;8.13;;;;;;;0.95;88.05;101783.72;5102902;28;20404;-68
2023/01/22 06:29:19;;;;;;;11.13;8.95;;;;;;;0.96;88.12;101784.56;5115458;28;20101;-67
2023/01/22 06:32:24;;;;;;;10.25;8.35;;;;;;;0.93;87.96;101782.88;5090417;28;20047;-68
2023/01/22 06:35:29;;;;;;;10.23;7.60;;;;;;;0.91;88.03;101785.41;5102997;28;20160;-67
2023/01/22 06:38:33;;;;;;;10.82;9.05;;;;;;;0.95;88.08;101793.16;5102790;28;20070;-67
2023/01/22 06:41:45;;;;;;;8.35;6.57;;;;;;;0.94;88.25;101787.16;5102535;28;20066;-66
2023/01/22 06:44:51;;;;;;;11.52;8.70;;;;;;;0.92;88.14;101794.00;5091300;28;20108;-66
2023/01/22 06:47:58;;;;;;;10.13;8.15;;;;;;;0.95;88.37;101800.88;5102527;28;20067;-67
2023/01/22 06:51:01;;;;;;;10.60;8.55;;;;;;;0.92;88.33;101794.84;5102534;28;20466;-67
2023/01/22 06:54:05;;;;;;;8.90;7.43;;;;;;;0.93;88.58;101801.75;4749248;28;10000842;-67
2023/01/22 06:57:12;;;;;;;8.40;6.93;;;;;;;0.94;88.39;101800.03;5115154;28;20039;-66
2023/01/22 07:00:17;;;;;;;7.53;6.15;;;;;;;0.97;88.38;101794.06;5101991;28;20096;-67
2023/01/22 07:03:20;;;;;;;8.82;7.72;;;;;;;0.96;88.23;101806.06;5115154;28;20070;-68
2023/01/22 07:06:24;;;;;;;11.15;7.50;;;;;;;0.98;88.44;101804.34;5102395;28;20066;-68
2023/01/22 07:09:27;;;;;;;8.65;6.13;;;;;;;1.02;88.15;101813.84;5115073;28;20420;-68
2023/01/22 07:12:32;;;;;;;11.82;7.38;;;;;;;1.04;88.07;101829.28;5102210;28;20038;-66
2023/01/22 07:15:35;;;;;;;9.82;7.10;;;;;;;1.02;87.84;101821.56;5101891;28;20103;-68
2023/01/22 07:18:39;;;;;;;8.10;5.50;;;;;;;1.00;88.20;101823.25;5094256;28;20047;-68
2023/01/22 07:21:42;;;;;;;6.63;5.43;;;;;;;1.02;88.27;101826.72;5094294;28;20043;-68
2023/01/22 07:24:47;;;;;;;7.50;5.80;;;;;;;1.02;87.91;101829.31;5094024;28;20413;-69
2023/01/22 07:28:01;;;;;;;7.80;6.25;;;;;;;1.01;87.98;101840.44;5088653;28;20046;-68
2023/01/22 07:31:08;;;;;;;6.13;4.78;;;;;;;1.05;87.80;101841.31;5106032;27;20042;-69
2023/01/22 07:34:11;;;;;;;7.72;6.55;;;;;;;1.06;87.65;101843.91;5105639;27;20107;-68
2023/01/22 07:37:15;;;;;;;8.38;6.38;;;;;;;1.03;87.81;101843.91;5101842;27;20038;-68
2023/01/22 07:40:19;;;;;;;6.78;6.00;;;;;;;1.07;87.88;101843.06;5104122;27;20050;-75
2023/01/22 07:44:15;;;;;;;7.38;5.93;;;;;;;1.06;87.83;101846.50;5099594;27;20107;-70
2023/01/22 07:47:25;;;;;;;6.97;5.82;;;;;;;1.06;88.64;101854.22;5101326;27;20404;-67
2023/01/22 07:50:43;;;;;;;6.57;5.40;;;;;;;1.05;88.09;101854.19;4726694;28;9999784;-68
2023/01/22 07:54:40;;;;;;;7.65;6.25;;;;;;;1.03;87.98;101863.66;5108789;28;20050;-68
2023/01/22 07:58:40;;;;;;;7.45;5.10;;;;;;;1.09;88.07;101863.69;5044186;28;20098;-67
2023/01/22 08:02:33;;;;;;;12.23;7.60;;;;;;;1.06;87.95;101869.69;5080118;28;20050;-66
2023/01/22 08:05:41;;;;;;;7.28;6.32;;;;;;;0.98;88.48;101871.31;5088812;28;20058;-67
2023/01/22 08:09:00;;;;;;;7.70;6.05;;;;;;;1.02;88.62;101867.94;5087919;28;20302;-67
2023/01/22 08:31:52;;;;;;;9.27;6.68;;;;;;;1.16;88.06;101886.94;5042719;28;20512;-69
2023/01/22 08:35:16;;;;;;;8.77;7.15;;;;;;;1.11;88.17;101886.00;5109529;28;20042;-68
2023/01/22 08:38:20;;;;;;;9.70;7.28;;;;;;;1.11;88.37;101893.75;5108967;28;20197;-69
2023/01/22 08:41:27;;;;;;;8.80;6.82;;;;;;;1.13;88.73;101899.78;5108407;28;20082;-68
2023/01/22 08:44:30;;;;;;;10.55;7.22;;;;;;;1.13;88.72;101912.66;5108322;28;20058;-68
2023/01/22 08:47:35;;;;;;;8.73;7.15;;;;;;;1.27;88.97;101909.34;5075561;28;20039;-68
2023/01/22 08:50:38;;;;;;;9.23;7.13;;;;;;;1.42;88.63;101906.88;5088144;28;20047;-67
2023/01/22 08:53:46;;;;;;;10.05;7.45;;;;;;;1.42;88.13;101914.63;5108073;28;20119;-66
2023/01/22 08:57:40;;;;;;;8.10;6.97;;;;;;;1.54;87.63;101906.97;5106580;28;20050;-67
2023/01/22 09:00:45;;;;;;;9.15;6.80;;;;;;;1.61;87.20;101905.31;5107123;28;20499;-70
2023/01/22 09:04:06;;;;;;;8.43;7.20;;;;;;;1.72;87.06;101902.78;5107494;28;20046;-68
2023/01/22 09:07:59;;;;;;;9.40;7.38;;;;;;;1.53;87.05;101915.56;5108371;28;20516;-70
2023/01/22 09:11:16;;;;;;;7.40;6.20;;;;;;;1.61;87.41;101903.59;5107122;28;20127;-69
2023/01/22 09:19:06;;;;;;;9.95;7.53;;;;;;;1.73;86.54;101907.97;5103885;28;20100;-69
2023/01/22 09:22:10;;;;;;;;;;;;;;;1.85;86.34;101905.47;5109208;28;20066;-71
2023/01/22 09:25:16;;;;;;;8.25;6.70;;;;;;;1.77;86.48;101901.13;5109180;28;19958;-69
2023/01/22 09:28:20;;;;;;;23.58;7.70;;;;;;;1.94;86.02;101903.78;5098611;28;20101;-70
2023/01/22 09:31:23;;;;;;;9.52;7.18;;;;;;;1.94;85.72;101903.78;5110641;28;20046;-71
2023/01/22 09:34:27;;;;;;;7.75;6.95;;;;;;;1.98;85.56;101905.50;5099369;28;20092;-68
2023/01/22 09:37:31;;;;;;;10.02;7.63;;;;;;;1.94;86.06;101904.63;5112160;28;20078;-69
2023/01/22 09:40:40;;;;;;;7.82;6.32;;;;;;;2.13;85.33;101913.34;5110669;28;20055;-69
2023/01/22 09:43:49;;;;;;;8.93;6.40;;;;;;;2.04;84.80;101914.19;5098610;28;20565;-69
2023/01/22 09:47:02;;;;;;;9.57;6.05;;;;;;;1.89;85.65;101911.50;5112065;28;20096;-70
2023/01/22 09:50:31;;;;;;;10.17;7.80;;;;;;;1.96;85.70;101912.41;5112021;28;20050;-73
2023/01/22 09:53:34;;;;;;;8.98;7.90;;;;;;;2.01;85.50;101911.56;5112131;28;20469;-69
2023/01/22 09:56:43;;;;;;;9.88;6.78;;;;;;;1.84;85.82;101908.03;5110833;28;20519;-69
2023/01/22 09:59:54;;;;;;;7.60;6.18;;;;;;;1.76;86.37;101913.16;5116402;28;20444;-70
2023/01/22 10:03:02;;;;;;;8.40;7.15;;;;;;;1.71;86.47;101916.53;5115897;28;20042;-71
2023/01/22 10:06:11;;;;;;;6.97;6.05;;;;;;;1.70;86.91;101917.41;5116232;28;20104;-71
2023/01/22 10:09:19;;;;;;;8.45;7.05;;;;;;;1.71;86.77;101916.53;5103550;28;20054;-70
2023/01/22 10:12:27;;;;;;;8.55;6.65;;;;;;;1.73;86.81;101932.91;5115943;28;20119;-70
2023/01/22 10:15:32;;;;;;;7.25;5.72;;;;;;;1.70;86.89;101914.81;5115891;28;20188;-70
2023/01/22 10:19:04;;;;;;;8.43;6.57;;;;;;;1.69;86.99;101928.56;5115378;28;20107;-69
2023/01/22 10:22:19;;;;;;;10.02;8.85;;;;;;;1.69;87.28;101933.72;5115436;28;20049;-70
2023/01/22 10:25:22;;;;;;;8.10;6.47;;;;;;;1.70;87.49;101935.47;5103289;28;20054;-71
2023/01/22 10:28:27;;;;;;;8.02;6.38;;;;;;;1.78;87.35;101928.63;5121641;27;20046;-72
2023/01/22 10:31:33;;;;;;;7.03;6.20;;;;;;;1.81;87.24;101933.78;5136215;27;20577;-71
2023/01/22 10:34:36;;;;;;;11.05;8.32;;;;;;;1.86;86.95;101932.13;5115701;28;20047;-69
2023/01/22 10:37:45;;;;;;;8.50;5.97;;;;;;;1.87;87.04;101928.69;5115518;28;20047;-72
2023/01/22 10:41:00;;;;;;;8.15;6.43;;;;;;;1.84;87.13;101933.81;5115154;28;20054;-72
2023/01/22 10:44:22;;;;;;;7.43;6.25;;;;;;;1.78;87.07;101931.19;5115599;28;20046;-73
2023/01/22 10:47:27;;;;;;;8.45;7.35;;;;;;;1.81;87.38;101926.91;5102616;28;20059;-73
2023/01/22 10:50:30;;;;;;;7.57;6.28;;;;;;;1.84;87.30;101933.81;5103299;27;20050;-72
2023/01/22 10:53:37;;;;;;;7.20;5.90;;;;;;;1.88;87.29;101930.41;5135847;27;20677;-71
2023/01/22 10:56:40;;;;;;;10.05;8.60;;;;;;;1.83;86.93;101925.22;5135624;27;20568;-72
2023/01/22 10:59:53;;;;;;;9.20;7.97;;;;;;;1.80;87.73;101925.19;5135759;27;20042;-73
2023/01/22 11:02:58;;;;;;;10.95;8.55;;;;;;;1.87;87.28;101920.94;5135385;27;20042;-73
2023/01/22 11:06:14;;;;;;;10.48;9.38;;;;;;;1.93;87.22;101918.41;5135121;27;20046;-72
2023/01/22 11:09:24;;;;;;;9.00;7.32;;;;;;;1.94;87.30;101916.69;5117141;27;20086;-72
2023/01/22 11:12:27;;;;;;;8.88;6.97;;;;;;;1.94;87.39;101919.25;5101620;28;20527;-72
2023/01/22 11:15:43;;;;;;;11.55;9.40;;;;;;;1.88;87.33;101920.06;5114365;28;20038;-70
2023/01/22 11:19:10;;;;;;;15.40;12.02;;;;;;;1.84;87.26;101924.34;5114735;28;20408;-72
2023/01/22 11:22:22;;;;;;;17.35;13.43;;;;;;;1.95;87.18;101921.84;5080907;28;20043;-70
2023/01/22 11:25:36;;;;;;;14.95;11.75;;;;;;;1.99;86.97;101925.31;5081698;28;20462;-72
2023/01/22 11:28:58;;;;;;;13.68;11.30;;;;;;;2.02;87.18;101912.44;5123681;27;20138;-70
2023/01/22 11:32:44;;;;;;;24.20;18.13;;;;;;;2.02;86.99;101918.44;5109285;27;20464;-70
2023/01/22 11:36:15;;;;;;;28.20;18.75;;;;;;;2.01;87.31;101921.00;5118476;27;20043;-72
2023/01/22 11:40:00;;;;;;;28.30;22.50;;;;;;;1.97;87.37;101920.13;5113167;28;20110;-72
2023/01/22 11:43:29;;;;;;;21.73;17.35;;;;;;;2.01;87.68;101915.84;5114254;28;20074;-71
2023/01/22 11:46:41;;;;;;;18.67;14.20;;;;;;;2.08;87.39;101917.63;5122915;27;20097;-71
2023/01/22 11:50:15;;;;;;;19.38;15.52;;;;;;;2.06;87.67;101903.84;5111047;28;20135;-71
2023/01/22 11:53:37;;;;;;;19.20;15.77;;;;;;;2.14;87.44;101903.88;5115888;27;20046;-72
2023/01/22 11:56:43;;;;;;;19.15;15.07;;;;;;;2.17;87.30;101896.13;5089776;28;20404;-71
2023/01/22 11:59:59;;;;;;;15.68;13.10;;;;;;;2.17;87.64;101901.31;5112620;28;20085;-70
2023/01/22 12:03:12;;;;;;;25.20;16.45;;;;;;;2.15;87.08;101898.72;5113253;28;20054;-71
2023/01/22 12:06:22;;;;;;;12.20;10.25;;;;;;;2.15;87.43;101910.78;5110411;28;20153;-72
2023/01/22 12:09:37;;;;;;;19.02;15.88;;;;;;;2.16;87.06;101909.91;5099331;28;20054;-71
2023/01/22 12:13:04;;;;;;;18.45;15.18;;;;;;;2.11;87.39;101912.47;5111404;28;20511;-71
2023/01/22 12:16:19;;;;;;;17.52;14.05;;;;;;;2.03;88.21;101904.69;5098931;28;20047;-72
2023/01/22 12:19:45;;;;;;;15.60;12.40;;;;;;;2.07;88.55;101903.88;5111858;28;20049;-69
2023/01/22 12:23:21;;;;;;;13.63;11.13;;;;;;;2.15;88.52;101903.03;5091443;28;20138;-73
2023/01/22 12:26:31;;;;;;;13.32;10.27;;;;;;;2.18;88.69;101903.91;5112297;28;20047;-72
2023/01/22 12:29:50;;;;;;;14.18;11.48;;;;;;;2.19;88.39;101907.34;5130702;27;20130;-71
2023/01/22 12:32:58;;;;;;;12.18;10.80;;;;;;;2.14;87.95;101902.19;5100292;28;20197;-71
2023/01/22 12:36:04;;;;;;;11.98;10.25;;;;;;;2.14;88.41;101907.34;5100690;27;20066;-72
2023/01/22 12:39:35;;;;;;;12.63;11.25;;;;;;;2.07;88.98;101906.44;5112387;28;20090;-71
2023/01/22 12:42:59;;;;;;;14.90;10.90;;;;;;;2.15;88.98;101901.31;5111726;28;20054;-69
2023/01/22 12:46:35;;;;;;;16.27;12.52;;;;;;;2.17;88.84;101893.56;5092247;28;20101;-71
2023/01/22 12:49:51;;;;;;;16.00;14.13;;;;;;;2.21;88.75;101900.47;5081831;28;20507;-71
2023/01/22 12:53:03;;;;;;;16.05;14.35;;;;;;;2.20;88.55;101898.75;5110696;27;20104;-71
2023/01/22 12:56:10;;;;;;;17.70;12.97;;;;;;;2.24;88.23;101892.75;4757085;28;10001138;-70
2023/01/22 12:59:45;;;;;;;15.38;12.50;;;;;;;2.27;88.49;101897.94;5091382;28;20130;-69
2023/01/22 13:02:49;;;;;;;15.25;13.35;;;;;;;2.25;88.29;101894.47;5083311;28;20623;-71
2023/01/22 13:05:53;;;;;;;15.38;13.00;;;;;;;2.23;88.69;101901.34;5092283;28;20105;-69
2023/01/22 13:09:01;;;;;;;13.48;11.05;;;;;;;2.25;88.67;101907.38;5092089;28;20046;-70
2023/01/22 13:12:28;;;;;;;15.50;12.52;;;;;;;2.25;88.82;101899.63;5091960;28;20047;-69
2023/01/22 13:15:37;;;;;;;12.48;9.68;;;;;;;2.25;89.02;101899.63;5091294;28;20570;-70
2023/01/22 13:18:53;;;;;;;13.10;10.00;;;;;;;2.24;88.69;101897.91;5092326;28;20047;-70
2023/01/22 13:21:58;;;;;;;14.70;11.70;;;;;;;2.24;88.66;101897.91;5079576;28;20083;-70
2023/01/22 13:25:02;;;;;;;12.73;11.15;;;;;;;2.27;88.37;101909.13;5079891;28;20051;-70
2023/01/22 13:28:14;;;;;;;13.80;10.82;;;;;;;2.29;88.29;101906.53;5092278;28;20055;-70
2023/01/22 13:31:18;;;;;;;14.15;11.40;;;;;;;2.27;88.57;101916.00;5092008;28;20462;-70
2023/01/22 13:34:22;;;;;;;13.07;11.05;;;;;;;2.23;89.03;101912.50;5091883;28;20054;-70
2023/01/22 13:37:29;;;;;;;13.90;11.32;;;;;;;2.22;88.71;101912.53;5092016;28;20062;-70
2023/01/22 13:40:35;;;;;;;15.57;11.93;;;;;;;2.17;89.42;101916.78;5073411;28;20063;-70
2023/01/22 13:43:42;;;;;;;13.85;11.32;;;;;;;2.10;89.53;101923.63;5091671;28;20039;-70
2023/01/22 13:46:47;;;;;;;16.00;13.65;;;;;;;2.13;89.72;101922.78;5091656;28;20085;-70
2023/01/22 13:49:50;;;;;;;13.32;11.18;;;;;;;2.14;89.49;101920.25;5091575;28;20101;-70
2023/01/22 13:52:56;;;;;;;16.10;12.23;;;;;;;2.17;89.62;101927.09;5092019;28;20039;-71
2023/01/22 13:56:03;;;;;;;17.88;14.25;;;;;;;2.18;89.38;101927.13;5092210;28;20516;-70
2023/01/22 13:59:27;;;;;;;17.20;14.27;;;;;;;2.20;89.19;101934.88;5077770;28;20101;-69
2023/01/22 14:02:33;;;;;;;12.75;10.27;;;;;;;2.23;89.30;101937.47;5078941;28;20047;-70
2023/01/22 14:05:37;;;;;;;14.50;12.20;;;;;;;2.22;89.28;101938.31;5079459;28;20046;-71
2023/01/22 14:08:53;;;;;;;14.45;12.60;;;;;;;2.21;89.22;101939.19;5091717;28;20519;-69
2023/01/22 14:11:58;;;;;;;15.25;13.32;;;;;;;2.20;88.89;101943.50;5091346;28;20047;-69
2023/01/22 14:15:13;;;;;;;15.20;12.00;;;;;;;2.22;89.19;101938.31;5078895;28;20539;-70
2023/01/22 14:18:17;;;;;;;14.30;12.32;;;;;;;2.18;89.11;101944.34;5091639;28;20082;-69
2023/01/22 14:21:20;;;;;;;18.08;12.98;;;;;;;2.16;89.39;101940.88;5091475;28;20047;-70
2023/01/22 14:24:24;;;;;;;17.23;15.30;;;;;;;2.15;89.17;101946.91;5079181;28;20586;-73
2023/01/22 14:27:38;;;;;;;12.52;11.23;;;;;;;2.15;89.14;101946.91;5091784;28;20059;-72
2023/01/22 14:30:42;;;;;;;13.23;11.82;;;;;;;2.15;89.33;101954.66;5091244;28;20046;-70
2023/01/22 14:33:49;;;;;;;12.68;11.18;;;;;;;2.11;89.35;101961.50;5091911;28;20043;-68
2023/01/22 14:36:56;;;;;;;13.98;12.57;;;;;;;2.16;89.16;101961.53;5091877;28;20051;-69
2023/01/22 14:40:02;;;;;;;15.57;12.80;;;;;;;2.20;89.34;101960.66;5099982;28;20047;-68
2023/01/22 14:43:08;;;;;;;21.35;17.52;;;;;;;2.20;88.75;101968.41;5097631;28;20054;-67
2023/01/22 14:46:13;;;;;;;20.63;18.42;;;;;;;2.13;88.98;101962.34;5080831;28;20059;-68
2023/01/22 14:49:16;;;;;;;;;;;;;;;2.15;88.84;101960.66;5094782;28;20046;-68
2023/01/22 14:52:20;;;;;;;17.17;13.32;;;;;;;2.08;89.24;101964.94;5094834;28;19919;-68
2023/01/22 14:55:24;;;;;;;14.70;12.43;;;;;;;2.08;89.59;101970.09;5094617;28;20039;-69
2023/01/22 14:58:27;;;;;;;18.70;16.02;;;;;;;2.14;89.33;101978.69;5093977;28;20066;-79
2023/01/22 15:01:30;;;;;;;13.90;11.95;;;;;;;2.13;89.13;101971.81;5081736;28;20401;-68
2023/01/22 15:04:34;;;;;;;;;;;;;;;2.11;89.02;101977.00;5094893;28;20047;-68
2023/01/22 15:07:38;;;;;;;13.95;11.73;;;;;;;2.13;89.21;101982.16;5094644;28;19972;-67
2023/01/22 15:10:41;;;;;;;;;;;;;;;2.15;89.31;101977.88;5082098;28;20136;-68
2023/01/22 15:13:55;;;;;;;14.10;11.00;;;;;;;2.04;89.34;101978.69;5093893;28;19965;-67
2023/01/22 15:17:05;;;;;;;13.10;10.20;;;;;;;2.06;89.27;101974.38;5094291;28;20515;-69